sensor_id;sensor_type;location;lat;lon;timestamp;P1;durP1;ratioP1;P2;durP2;ratioP2
12286;SDS011;6206;53.100;11.098;2022-07-01T00:02:08;7.50;;;6.18;;
12286;SDS011;6206;53.100;11.098;2022-07-01T00:04:34;7.28;;;6.15;;
12286;SDS011;6206;53.100;11.098;2022-07-01T00:07:01;6.82;;;6.10;;
12286;SDS011;6206;53.100;11.098;2022-07-01T00:09:28;10.27;;;6.28;;
12286;SDS011;6206;53.100;11.098;2022-07-01T00:11:55;7.55;;;5.95;;
12286;SDS011;6206;53.100;11.098;2022-07-01T00:14:23;7.63;;;6.72;;
12286;SDS011;6206;53.100;11.098;2022-07-01T00:16:49;7.15;;;6.38;;
12286;SDS011;6206;53.100;11.098;2022-07-01T00:19:16;7.63;;;6.25;;
12286;SDS011;6206;53.100;11.098;2022-07-01T00:21:43;8.82;;;6.80;;
12286;SDS011;6206;53.100;11.098;2022-07-01T00:24:10;7.53;;;6.72;;
12286;SDS011;6206;53.100;11.098;2022-07-01T00:26:36;7.70;;;7.00;;
12286;SDS011;6206;53.100;11.098;2022-07-01T00:29:03;7.60;;;6.80;;
12286;SDS011;6206;53.100;11.098;2022-07-01T00:31:31;7.35;;;6.65;;
12286;SDS011;6206;53.100;11.098;2022-07-01T00:33:58;7.30;;;6.60;;
12286;SDS011;6206;53.100;11.098;2022-07-01T00:36:24;8.30;;;7.00;;
12286;SDS011;6206;53.100;11.098;2022-07-01T00:38:51;7.47;;;6.77;;
12286;SDS011;6206;53.100;11.098;2022-07-01T00:41:17;8.10;;;7.25;;
12286;SDS011;6206;53.100;11.098;2022-07-01T00:43:44;7.53;;;6.72;;
12286;SDS011;6206;53.100;11.098;2022-07-01T00:46:11;7.28;;;6.57;;
12286;SDS011;6206;53.100;11.098;2022-07-01T00:48:39;8.43;;;6.97;;
12286;SDS011;6206;53.100;11.098;2022-07-01T00:51:06;7.70;;;6.90;;
12286;SDS011;6206;53.100;11.098;2022-07-01T00:53:33;8.95;;;7.20;;
12286;SDS011;6206;53.100;11.098;2022-07-01T00:56:01;8.48;;;6.68;;
12286;SDS011;6206;53.100;11.098;2022-07-01T00:58:28;7.82;;;6.75;;
12286;SDS011;6206;53.100;11.098;2022-07-01T01:00:56;7.82;;;7.03;;
12286;SDS011;6206;53.100;11.098;2022-07-01T01:03:24;7.88;;;7.05;;
12286;SDS011;6206;53.100;11.098;2022-07-01T01:05:52;8.47;;;7.00;;
12286;SDS011;6206;53.100;11.098;2022-07-01T01:08:22;7.75;;;6.95;;
12286;SDS011;6206;53.100;11.098;2022-07-01T01:10:50;7.88;;;6.97;;
12286;SDS011;6206;53.100;11.098;2022-07-01T01:13:18;7.45;;;6.63;;
12286;SDS011;6206;53.100;11.098;2022-07-01T01:15:44;7.93;;;6.45;;
12286;SDS011;6206;53.100;11.098;2022-07-01T01:18:11;7.45;;;6.22;;
12286;SDS011;6206;53.100;11.098;2022-07-01T01:20:39;8.15;;;7.35;;
12286;SDS011;6206;53.100;11.098;2022-07-01T01:23:05;8.80;;;7.20;;
12286;SDS011;6206;53.100;11.098;2022-07-01T01:25:33;9.03;;;7.37;;
12286;SDS011;6206;53.100;11.098;2022-07-01T01:28:00;9.45;;;7.28;;
12286;SDS011;6206;53.100;11.098;2022-07-01T01:30:27;8.45;;;7.60;;
12286;SDS011;6206;53.100;11.098;2022-07-01T01:32:54;8.63;;;7.65;;
12286;SDS011;6206;53.100;11.098;2022-07-01T01:35:21;8.52;;;7.60;;
12286;SDS011;6206;53.100;11.098;2022-07-01T01:37:49;8.53;;;7.63;;
12286;SDS011;6206;53.100;11.098;2022-07-01T01:40:16;8.65;;;7.75;;
12286;SDS011;6206;53.100;11.098;2022-07-01T01:42:43;8.40;;;7.60;;
12286;SDS011;6206;53.100;11.098;2022-07-01T01:45:11;10.50;;;8.03;;
12286;SDS011;6206;53.100;11.098;2022-07-01T01:47:38;9.37;;;8.37;;
12286;SDS011;6206;53.100;11.098;2022-07-01T01:50:05;9.82;;;8.00;;
12286;SDS011;6206;53.100;11.098;2022-07-01T01:52:32;10.50;;;8.60;;
12286;SDS011;6206;53.100;11.098;2022-07-01T01:55:00;11.07;;;8.48;;
12286;SDS011;6206;53.100;11.098;2022-07-01T01:57:27;9.43;;;8.25;;
12286;SDS011;6206;53.100;11.098;2022-07-01T01:59:54;9.57;;;8.57;;
12286;SDS011;6206;53.100;11.098;2022-07-01T02:02:21;9.50;;;8.50;;
12286;SDS011;6206;53.100;11.098;2022-07-01T02:04:48;10.02;;;9.02;;
12286;SDS011;6206;53.100;11.098;2022-07-01T02:07:15;9.70;;;8.60;;
12286;SDS011;6206;53.100;11.098;2022-07-01T02:09:42;10.15;;;8.95;;
12286;SDS011;6206;53.100;11.098;2022-07-01T02:12:10;9.93;;;8.93;;
12286;SDS011;6206;53.100;11.098;2022-07-01T02:14:37;10.18;;;9.02;;
12286;SDS011;6206;53.100;11.098;2022-07-01T02:17:03;9.38;;;8.48;;
12286;SDS011;6206;53.100;11.098;2022-07-01T02:19:30;10.02;;;8.68;;
12286;SDS011;6206;53.100;11.098;2022-07-01T02:21:57;10.05;;;9.07;;
12286;SDS011;6206;53.100;11.098;2022-07-01T02:24:23;10.40;;;9.18;;
12286;SDS011;6206;53.100;11.098;2022-07-01T02:26:51;11.05;;;8.07;;
12286;SDS011;6206;53.100;11.098;2022-07-01T02:29:19;10.93;;;7.65;;
12286;SDS011;6206;53.100;11.098;2022-07-01T02:31:47;10.75;;;8.88;;
12286;SDS011;6206;53.100;11.098;2022-07-01T02:34:13;9.20;;;7.53;;
12286;SDS011;6206;53.100;11.098;2022-07-01T02:36:40;9.85;;;8.02;;
12286;SDS011;6206;53.100;11.098;2022-07-01T02:39:07;10.57;;;7.70;;
12286;SDS011;6206;53.100;11.098;2022-07-01T02:41:33;11.00;;;8.15;;
12286;SDS011;6206;53.100;11.098;2022-07-01T02:44:21;10.52;;;8.25;;
12286;SDS011;6206;53.100;11.098;2022-07-01T02:46:48;9.50;;;8.18;;
12286;SDS011;6206;53.100;11.098;2022-07-01T02:49:15;12.38;;;9.18;;
12286;SDS011;6206;53.100;11.098;2022-07-01T02:51:41;10.60;;;8.23;;
12286;SDS011;6206;53.100;11.098;2022-07-01T02:54:08;10.00;;;8.30;;
12286;SDS011;6206;53.100;11.098;2022-07-01T02:56:35;10.30;;;8.88;;
12286;SDS011;6206;53.100;11.098;2022-07-01T02:59:01;11.10;;;8.63;;
12286;SDS011;6206;53.100;11.098;2022-07-01T03:01:29;10.40;;;9.20;;
12286;SDS011;6206;53.100;11.098;2022-07-01T03:03:56;11.40;;;9.68;;
12286;SDS011;6206;53.100;11.098;2022-07-01T03:06:23;12.60;;;9.73;;
12286;SDS011;6206;53.100;11.098;2022-07-01T03:08:49;15.53;;;11.13;;
12286;SDS011;6206;53.100;11.098;2022-07-01T03:11:16;11.95;;;10.02;;
12286;SDS011;6206;53.100;11.098;2022-07-01T03:13:43;11.70;;;9.97;;
12286;SDS011;6206;53.100;11.098;2022-07-01T03:16:10;11.30;;;9.63;;
12286;SDS011;6206;53.100;11.098;2022-07-01T03:18:38;11.07;;;9.98;;
12286;SDS011;6206;53.100;11.098;2022-07-01T03:21:05;11.32;;;10.20;;
12286;SDS011;6206;53.100;11.098;2022-07-01T03:23:31;12.10;;;10.43;;
12286;SDS011;6206;53.100;11.098;2022-07-01T03:25:58;11.18;;;9.57;;
12286;SDS011;6206;53.100;11.098;2022-07-01T03:28:25;11.75;;;10.55;;
12286;SDS011;6206;53.100;11.098;2022-07-01T03:30:52;13.40;;;10.60;;
12286;SDS011;6206;53.100;11.098;2022-07-01T03:33:18;11.73;;;10.30;;
12286;SDS011;6206;53.100;11.098;2022-07-01T03:35:46;11.07;;;9.95;;
12286;SDS011;6206;53.100;11.098;2022-07-01T03:38:13;11.17;;;10.07;;
12286;SDS011;6206;53.100;11.098;2022-07-01T03:40:40;11.38;;;9.90;;
12286;SDS011;6206;53.100;11.098;2022-07-01T03:43:06;11.40;;;9.73;;
12286;SDS011;6206;53.100;11.098;2022-07-01T03:45:34;11.00;;;9.90;;
12286;SDS011;6206;53.100;11.098;2022-07-01T03:48:01;11.05;;;9.30;;
12286;SDS011;6206;53.100;11.098;2022-07-01T03:50:28;10.50;;;9.43;;
12286;SDS011;6206;53.100;11.098;2022-07-01T03:52:56;10.50;;;9.50;;
12286;SDS011;6206;53.100;11.098;2022-07-01T03:55:45;10.43;;;9.40;;
12286;SDS011;6206;53.100;11.098;2022-07-01T03:58:12;10.23;;;9.13;;
12286;SDS011;6206;53.100;11.098;2022-07-01T04:00:39;10.40;;;9.40;;
12286;SDS011;6206;53.100;11.098;2022-07-01T04:03:06;10.52;;;9.13;;
12286;SDS011;6206;53.100;11.098;2022-07-01T04:05:33;10.07;;;9.18;;
12286;SDS011;6206;53.100;11.098;2022-07-01T04:08:02;9.85;;;8.85;;
12286;SDS011;6206;53.100;11.098;2022-07-01T04:10:30;10.23;;;9.13;;
12286;SDS011;6206;53.100;11.098;2022-07-01T04:12:58;11.00;;;9.17;;
12286;SDS011;6206;53.100;11.098;2022-07-01T04:15:25;12.50;;;8.55;;
12286;SDS011;6206;53.100;11.098;2022-07-01T04:17:52;13.60;;;8.60;;
12286;SDS011;6206;53.100;11.098;2022-07-01T04:27:40;7.90;;;4.10;;
12286;SDS011;6206;53.100;11.098;2022-07-01T04:30:07;6.10;;;4.05;;
12286;SDS011;6206;53.100;11.098;2022-07-01T04:32:34;7.88;;;4.25;;
12286;SDS011;6206;53.100;11.098;2022-07-01T04:35:01;7.07;;;3.80;;
12286;SDS011;6206;53.100;11.098;2022-07-01T04:37:28;0.10;;;0.10;;
12286;SDS011;6206;53.100;11.098;2022-07-01T04:39:54;0.00;;;0.00;;
12286;SDS011;6206;53.100;11.098;2022-07-01T04:42:23;0.40;;;0.30;;
12286;SDS011;6206;53.100;11.098;2022-07-01T04:44:48;0.10;;;0.10;;
12286;SDS011;6206;53.100;11.098;2022-07-01T04:47:15;0.00;;;0.00;;
12286;SDS011;6206;53.100;11.098;2022-07-01T04:49:42;0.40;;;0.30;;
12286;SDS011;6206;53.100;11.098;2022-07-01T04:52:08;0.00;;;0.00;;
12286;SDS011;6206;53.100;11.098;2022-07-01T04:54:36;0.00;;;0.00;;
12286;SDS011;6206;53.100;11.098;2022-07-01T04:57:02;0.00;;;0.00;;
12286;SDS011;6206;53.100;11.098;2022-07-01T04:59:31;0.00;;;0.00;;
12286;SDS011;6206;53.100;11.098;2022-07-01T05:01:57;0.00;;;0.00;;
12286;SDS011;6206;53.100;11.098;2022-07-01T05:04:24;0.52;;;0.52;;
12286;SDS011;6206;53.100;11.098;2022-07-01T05:06:53;0.00;;;0.00;;
12286;SDS011;6206;53.100;11.098;2022-07-01T05:09:19;0.00;;;0.00;;
12286;SDS011;6206;53.100;11.098;2022-07-01T05:11:46;0.00;;;0.00;;
12286;SDS011;6206;53.100;11.098;2022-07-01T05:14:13;0.00;;;0.00;;
12286;SDS011;6206;53.100;11.098;2022-07-01T05:16:41;0.00;;;0.00;;
12286;SDS011;6206;53.100;11.098;2022-07-01T05:19:08;0.00;;;0.00;;
12286;SDS011;6206;53.100;11.098;2022-07-01T05:21:52;0.00;;;0.00;;
12286;SDS011;6206;53.100;11.098;2022-07-01T05:24:22;0.00;;;0.00;;
12286;SDS011;6206;53.100;11.098;2022-07-01T05:26:49;0.00;;;0.00;;
12286;SDS011;6206;53.100;11.098;2022-07-01T05:29:16;0.00;;;0.00;;
12286;SDS011;6206;53.100;11.098;2022-07-01T05:31:44;0.52;;;0.43;;
12286;SDS011;6206;53.100;11.098;2022-07-01T05:34:11;0.00;;;0.00;;
12286;SDS011;6206;53.100;11.098;2022-07-01T05:36:37;0.00;;;0.00;;
12286;SDS011;6206;53.100;11.098;2022-07-01T05:39:04;0.08;;;0.08;;
12286;SDS011;6206;53.100;11.098;2022-07-01T05:41:34;0.00;;;0.00;;
12286;SDS011;6206;53.100;11.098;2022-07-01T05:44:01;0.00;;;0.00;;
12286;SDS011;6206;53.100;11.098;2022-07-01T05:46:28;0.00;;;0.00;;
12286;SDS011;6206;53.100;11.098;2022-07-01T05:48:56;0.00;;;0.00;;
12286;SDS011;6206;53.100;11.098;2022-07-01T05:51:22;0.00;;;0.00;;
12286;SDS011;6206;53.100;11.098;2022-07-01T05:53:52;0.00;;;0.00;;
12286;SDS011;6206;53.100;11.098;2022-07-01T05:56:28;0.00;;;0.00;;
12286;SDS011;6206;53.100;11.098;2022-07-01T05:58:55;0.00;;;0.00;;
12286;SDS011;6206;53.100;11.098;2022-07-01T06:01:22;0.00;;;0.00;;
12286;SDS011;6206;53.100;11.098;2022-07-01T06:03:48;0.00;;;0.00;;
12286;SDS011;6206;53.100;11.098;2022-07-01T06:06:16;0.00;;;0.00;;
12286;SDS011;6206;53.100;11.098;2022-07-01T06:08:44;0.00;;;0.00;;
12286;SDS011;6206;53.100;11.098;2022-07-01T06:11:11;0.00;;;0.00;;
12286;SDS011;6206;53.100;11.098;2022-07-01T06:13:38;0.00;;;0.00;;
12286;SDS011;6206;53.100;11.098;2022-07-01T06:16:04;0.00;;;0.00;;
12286;SDS011;6206;53.100;11.098;2022-07-01T06:18:31;0.00;;;0.00;;
12286;SDS011;6206;53.100;11.098;2022-07-01T06:20:58;0.00;;;0.00;;
12286;SDS011;6206;53.100;11.098;2022-07-01T06:23:26;0.00;;;0.00;;
12286;SDS011;6206;53.100;11.098;2022-07-01T06:25:52;0.00;;;0.00;;
12286;SDS011;6206;53.100;11.098;2022-07-01T06:28:19;0.00;;;0.00;;
12286;SDS011;6206;53.100;11.098;2022-07-01T06:30:46;0.00;;;0.00;;
12286;SDS011;6206;53.100;11.098;2022-07-01T06:33:12;0.00;;;0.00;;
12286;SDS011;6206;53.100;11.098;2022-07-01T06:35:39;0.00;;;0.00;;
12286;SDS011;6206;53.100;11.098;2022-07-01T06:38:06;0.00;;;0.00;;
12286;SDS011;6206;53.100;11.098;2022-07-01T06:40:34;0.00;;;0.00;;
12286;SDS011;6206;53.100;11.098;2022-07-01T06:43:01;0.00;;;0.00;;
12286;SDS011;6206;53.100;11.098;2022-07-01T06:45:28;0.00;;;0.00;;
12286;SDS011;6206;53.100;11.098;2022-07-01T06:47:55;0.00;;;0.00;;
12286;SDS011;6206;53.100;11.098;2022-07-01T06:50:22;0.00;;;0.00;;
12286;SDS011;6206;53.100;11.098;2022-07-01T06:52:48;0.00;;;0.00;;
12286;SDS011;6206;53.100;11.098;2022-07-01T06:55:15;0.00;;;0.00;;
12286;SDS011;6206;53.100;11.098;2022-07-01T06:57:43;0.00;;;0.00;;
12286;SDS011;6206;53.100;11.098;2022-07-01T07:00:10;0.00;;;0.00;;
12286;SDS011;6206;53.100;11.098;2022-07-01T07:02:38;0.00;;;0.00;;
12286;SDS011;6206;53.100;11.098;2022-07-01T07:05:06;0.03;;;0.03;;
12286;SDS011;6206;53.100;11.098;2022-07-01T07:07:33;0.00;;;0.00;;
12286;SDS011;6206;53.100;11.098;2022-07-01T07:10:00;0.00;;;0.00;;
12286;SDS011;6206;53.100;11.098;2022-07-01T07:12:27;0.15;;;0.15;;
12286;SDS011;6206;53.100;11.098;2022-07-01T07:14:55;0.00;;;0.00;;
12286;SDS011;6206;53.100;11.098;2022-07-01T07:17:21;0.00;;;0.00;;
12286;SDS011;6206;53.100;11.098;2022-07-01T07:19:48;0.00;;;0.00;;
12286;SDS011;6206;53.100;11.098;2022-07-01T07:22:14;0.00;;;0.00;;
12286;SDS011;6206;53.100;11.098;2022-07-01T07:24:41;0.15;;;0.15;;
12286;SDS011;6206;53.100;11.098;2022-07-01T07:27:08;0.13;;;0.13;;
12286;SDS011;6206;53.100;11.098;2022-07-01T07:29:35;0.00;;;0.00;;
12286;SDS011;6206;53.100;11.098;2022-07-01T07:32:03;0.00;;;0.00;;
12286;SDS011;6206;53.100;11.098;2022-07-01T07:34:31;0.00;;;0.00;;
12286;SDS011;6206;53.100;11.098;2022-07-01T07:36:59;0.00;;;0.00;;
12286;SDS011;6206;53.100;11.098;2022-07-01T07:39:26;0.00;;;0.00;;
12286;SDS011;6206;53.100;11.098;2022-07-01T07:41:52;0.00;;;0.00;;
12286;SDS011;6206;53.100;11.098;2022-07-01T07:44:19;0.00;;;0.00;;
12286;SDS011;6206;53.100;11.098;2022-07-01T07:46:46;0.00;;;0.00;;
12286;SDS011;6206;53.100;11.098;2022-07-01T07:49:14;0.00;;;0.00;;
12286;SDS011;6206;53.100;11.098;2022-07-01T07:51:40;0.00;;;0.00;;
12286;SDS011;6206;53.100;11.098;2022-07-01T07:54:07;0.00;;;0.00;;
12286;SDS011;6206;53.100;11.098;2022-07-01T07:56:34;0.00;;;0.00;;
12286;SDS011;6206;53.100;11.098;2022-07-01T07:59:00;0.00;;;0.00;;
12286;SDS011;6206;53.100;11.098;2022-07-01T08:01:27;0.00;;;0.00;;
12286;SDS011;6206;53.100;11.098;2022-07-01T08:03:54;0.00;;;0.00;;
12286;SDS011;6206;53.100;11.098;2022-07-01T08:06:22;0.00;;;0.00;;
12286;SDS011;6206;53.100;11.098;2022-07-01T08:08:48;0.00;;;0.00;;
12286;SDS011;6206;53.100;11.098;2022-07-01T08:11:15;0.00;;;0.00;;
12286;SDS011;6206;53.100;11.098;2022-07-01T08:13:42;0.00;;;0.00;;
12286;SDS011;6206;53.100;11.098;2022-07-01T08:16:09;0.00;;;0.00;;
12286;SDS011;6206;53.100;11.098;2022-07-01T08:18:36;0.00;;;0.00;;
12286;SDS011;6206;53.100;11.098;2022-07-01T08:21:03;0.10;;;0.10;;
12286;SDS011;6206;53.100;11.098;2022-07-01T08:23:31;0.20;;;0.20;;
12286;SDS011;6206;53.100;11.098;2022-07-01T08:25:58;0.00;;;0.00;;
12286;SDS011;6206;53.100;11.098;2022-07-01T08:28:24;0.00;;;0.00;;
12286;SDS011;6206;53.100;11.098;2022-07-01T08:30:51;0.00;;;0.00;;
12286;SDS011;6206;53.100;11.098;2022-07-01T08:33:18;0.00;;;0.00;;
12286;SDS011;6206;53.100;11.098;2022-07-01T08:35:44;0.00;;;0.00;;
12286;SDS011;6206;53.100;11.098;2022-07-01T08:38:12;0.08;;;0.08;;
12286;SDS011;6206;53.100;11.098;2022-07-01T08:40:40;0.00;;;0.00;;
12286;SDS011;6206;53.100;11.098;2022-07-01T08:43:07;0.25;;;0.15;;
12286;SDS011;6206;53.100;11.098;2022-07-01T08:45:34;0.00;;;0.00;;
12286;SDS011;6206;53.100;11.098;2022-07-01T08:48:02;0.00;;;0.00;;
12286;SDS011;6206;53.100;11.098;2022-07-01T08:50:30;0.00;;;0.00;;
12286;SDS011;6206;53.100;11.098;2022-07-01T08:53:00;0.05;;;0.05;;
12286;SDS011;6206;53.100;11.098;2022-07-01T08:55:27;0.00;;;0.00;;
12286;SDS011;6206;53.100;11.098;2022-07-01T08:57:55;0.00;;;0.00;;
12286;SDS011;6206;53.100;11.098;2022-07-01T09:00:28;0.00;;;0.00;;
12286;SDS011;6206;53.100;11.098;2022-07-01T09:02:56;0.03;;;0.03;;
12286;SDS011;6206;53.100;11.098;2022-07-01T09:05:24;0.00;;;0.00;;
12286;SDS011;6206;53.100;11.098;2022-07-01T09:07:55;0.00;;;0.00;;
12286;SDS011;6206;53.100;11.098;2022-07-01T09:10:23;0.00;;;0.00;;
12286;SDS011;6206;53.100;11.098;2022-07-01T09:12:51;0.00;;;0.00;;
12286;SDS011;6206;53.100;11.098;2022-07-01T09:15:23;0.00;;;0.00;;
12286;SDS011;6206;53.100;11.098;2022-07-01T09:17:52;0.00;;;0.00;;
12286;SDS011;6206;53.100;11.098;2022-07-01T09:20:24;0.10;;;0.10;;
12286;SDS011;6206;53.100;11.098;2022-07-01T09:22:58;0.10;;;0.10;;
12286;SDS011;6206;53.100;11.098;2022-07-01T09:25:30;0.00;;;0.00;;
12286;SDS011;6206;53.100;11.098;2022-07-01T09:28:05;0.00;;;0.00;;
12286;SDS011;6206;53.100;11.098;2022-07-01T09:30:39;4.07;;;3.53;;
12286;SDS011;6206;53.100;11.098;2022-07-01T09:33:10;0.00;;;0.00;;
12286;SDS011;6206;53.100;11.098;2022-07-01T09:35:38;0.00;;;0.00;;
12286;SDS011;6206;53.100;11.098;2022-07-01T09:38:06;0.00;;;0.00;;
12286;SDS011;6206;53.100;11.098;2022-07-01T09:40:52;0.00;;;0.00;;
12286;SDS011;6206;53.100;11.098;2022-07-01T09:43:21;0.00;;;0.00;;
12286;SDS011;6206;53.100;11.098;2022-07-01T09:45:51;0.00;;;0.00;;
12286;SDS011;6206;53.100;11.098;2022-07-01T09:48:19;0.00;;;0.00;;
12286;SDS011;6206;53.100;11.098;2022-07-01T09:50:46;0.00;;;0.00;;
12286;SDS011;6206;53.100;11.098;2022-07-01T09:53:13;0.00;;;0.00;;
12286;SDS011;6206;53.100;11.098;2022-07-01T09:55:40;0.00;;;0.00;;
12286;SDS011;6206;53.100;11.098;2022-07-01T09:58:07;0.00;;;0.00;;
12286;SDS011;6206;53.100;11.098;2022-07-01T10:00:34;0.00;;;0.00;;
12286;SDS011;6206;53.100;11.098;2022-07-01T10:03:04;0.00;;;0.00;;
12286;SDS011;6206;53.100;11.098;2022-07-01T10:05:33;0.00;;;0.00;;
12286;SDS011;6206;53.100;11.098;2022-07-01T10:08:14;0.00;;;0.00;;
12286;SDS011;6206;53.100;11.098;2022-07-01T10:10:51;0.00;;;0.00;;
12286;SDS011;6206;53.100;11.098;2022-07-01T10:13:35;0.00;;;0.00;;
12286;SDS011;6206;53.100;11.098;2022-07-01T10:16:02;0.00;;;0.00;;
12286;SDS011;6206;53.100;11.098;2022-07-01T10:18:31;0.00;;;0.00;;
12286;SDS011;6206;53.100;11.098;2022-07-01T10:20:57;0.00;;;0.00;;
12286;SDS011;6206;53.100;11.098;2022-07-01T10:23:27;0.00;;;0.00;;
12286;SDS011;6206;53.100;11.098;2022-07-01T10:26:02;0.00;;;0.00;;
12286;SDS011;6206;53.100;11.098;2022-07-01T10:28:39;0.00;;;0.00;;
12286;SDS011;6206;53.100;11.098;2022-07-01T10:31:08;0.00;;;0.00;;
12286;SDS011;6206;53.100;11.098;2022-07-01T10:33:43;0.00;;;0.00;;
12286;SDS011;6206;53.100;11.098;2022-07-01T10:36:13;0.00;;;0.00;;
12286;SDS011;6206;53.100;11.098;2022-07-01T10:39:07;0.93;;;0.60;;
12286;SDS011;6206;53.100;11.098;2022-07-01T10:41:36;0.00;;;0.00;;
12286;SDS011;6206;53.100;11.098;2022-07-01T10:44:05;0.00;;;0.00;;
12286;SDS011;6206;53.100;11.098;2022-07-01T10:46:42;0.00;;;0.00;;
12286;SDS011;6206;53.100;11.098;2022-07-01T10:49:12;0.00;;;0.00;;
12286;SDS011;6206;53.100;11.098;2022-07-01T10:51:45;0.00;;;0.00;;
12286;SDS011;6206;53.100;11.098;2022-07-01T10:54:13;0.00;;;0.00;;
12286;SDS011;6206;53.100;11.098;2022-07-01T10:57:18;0.00;;;0.00;;
12286;SDS011;6206;53.100;11.098;2022-07-01T10:59:47;0.00;;;0.00;;
12286;SDS011;6206;53.100;11.098;2022-07-01T11:02:16;1.55;;;1.45;;
12286;SDS011;6206;53.100;11.098;2022-07-01T11:04:45;0.00;;;0.00;;
12286;SDS011;6206;53.100;11.098;2022-07-01T11:07:12;0.00;;;0.00;;
12286;SDS011;6206;53.100;11.098;2022-07-01T11:09:39;0.00;;;0.00;;
12286;SDS011;6206;53.100;11.098;2022-07-01T11:12:06;0.00;;;0.00;;
12286;SDS011;6206;53.100;11.098;2022-07-01T11:14:34;0.00;;;0.00;;
12286;SDS011;6206;53.100;11.098;2022-07-01T11:17:02;0.00;;;0.00;;
12286;SDS011;6206;53.100;11.098;2022-07-01T11:19:30;0.00;;;0.00;;
12286;SDS011;6206;53.100;11.098;2022-07-01T11:21:58;0.00;;;0.00;;
12286;SDS011;6206;53.100;11.098;2022-07-01T11:24:25;0.00;;;0.00;;
12286;SDS011;6206;53.100;11.098;2022-07-01T11:26:54;0.00;;;0.00;;
12286;SDS011;6206;53.100;11.098;2022-07-01T11:29:26;0.00;;;0.00;;
12286;SDS011;6206;53.100;11.098;2022-07-01T11:31:54;0.00;;;0.00;;
12286;SDS011;6206;53.100;11.098;2022-07-01T11:34:20;0.00;;;0.00;;
12286;SDS011;6206;53.100;11.098;2022-07-01T11:36:47;0.30;;;0.30;;
12286;SDS011;6206;53.100;11.098;2022-07-01T11:39:36;0.00;;;0.00;;
12286;SDS011;6206;53.100;11.098;2022-07-01T11:42:09;0.00;;;0.00;;
12286;SDS011;6206;53.100;11.098;2022-07-01T11:44:38;0.00;;;0.00;;
12286;SDS011;6206;53.100;11.098;2022-07-01T11:47:08;0.00;;;0.00;;
12286;SDS011;6206;53.100;11.098;2022-07-01T11:49:43;0.00;;;0.00;;
12286;SDS011;6206;53.100;11.098;2022-07-01T11:52:10;0.00;;;0.00;;
12286;SDS011;6206;53.100;11.098;2022-07-01T11:54:38;0.00;;;0.00;;
12286;SDS011;6206;53.100;11.098;2022-07-01T11:57:10;0.00;;;0.00;;
12286;SDS011;6206;53.100;11.098;2022-07-01T11:59:38;0.77;;;0.73;;
12286;SDS011;6206;53.100;11.098;2022-07-01T12:02:05;0.98;;;0.80;;
12286;SDS011;6206;53.100;11.098;2022-07-01T12:04:33;1.45;;;1.00;;
12286;SDS011;6206;53.100;11.098;2022-07-01T12:07:00;2.33;;;0.98;;
12286;SDS011;6206;53.100;11.098;2022-07-01T12:09:27;1.20;;;1.10;;
12286;SDS011;6206;53.100;11.098;2022-07-01T12:11:55;5.95;;;1.40;;
12286;SDS011;6206;53.100;11.098;2022-07-01T12:14:23;1.23;;;1.10;;
12286;SDS011;6206;53.100;11.098;2022-07-01T12:16:51;1.88;;;1.33;;
12286;SDS011;6206;53.100;11.098;2022-07-01T12:19:19;1.15;;;0.80;;
12286;SDS011;6206;53.100;11.098;2022-07-01T12:21:49;1.45;;;1.23;;
12286;SDS011;6206;53.100;11.098;2022-07-01T12:24:18;1.30;;;1.20;;
12286;SDS011;6206;53.100;11.098;2022-07-01T12:26:47;0.93;;;0.93;;
12286;SDS011;6206;53.100;11.098;2022-07-01T12:29:17;2.33;;;1.42;;
12286;SDS011;6206;53.100;11.098;2022-07-01T12:31:53;1.60;;;1.50;;
12286;SDS011;6206;53.100;11.098;2022-07-01T12:34:21;1.55;;;1.40;;
12286;SDS011;6206;53.100;11.098;2022-07-01T12:36:48;1.95;;;1.67;;
12286;SDS011;6206;53.100;11.098;2022-07-01T12:39:15;1.92;;;1.52;;
12286;SDS011;6206;53.100;11.098;2022-07-01T12:41:48;2.33;;;1.52;;
12286;SDS011;6206;53.100;11.098;2022-07-01T12:44:21;2.53;;;1.75;;
12286;SDS011;6206;53.100;11.098;2022-07-01T12:46:49;2.60;;;1.90;;
12286;SDS011;6206;53.100;11.098;2022-07-01T12:49:20;6.03;;;1.67;;
12286;SDS011;6206;53.100;11.098;2022-07-01T12:51:48;6.85;;;1.90;;
12286;SDS011;6206;53.100;11.098;2022-07-01T12:54:31;3.33;;;2.58;;
12286;SDS011;6206;53.100;11.098;2022-07-01T12:56:59;5.30;;;2.10;;
12286;SDS011;6206;53.100;11.098;2022-07-01T12:59:27;3.38;;;2.53;;
12286;SDS011;6206;53.100;11.098;2022-07-01T13:01:54;3.55;;;2.38;;
12286;SDS011;6206;53.100;11.098;2022-07-01T13:04:26;3.10;;;2.40;;
12286;SDS011;6206;53.100;11.098;2022-07-01T13:06:53;3.38;;;2.58;;
12286;SDS011;6206;53.100;11.098;2022-07-01T13:09:20;3.90;;;2.47;;
12286;SDS011;6206;53.100;11.098;2022-07-01T13:11:47;4.05;;;2.60;;
12286;SDS011;6206;53.100;11.098;2022-07-01T13:14:14;3.55;;;2.78;;
12286;SDS011;6206;53.100;11.098;2022-07-01T13:16:42;2.65;;;2.45;;
12286;SDS011;6206;53.100;11.098;2022-07-01T13:19:08;3.92;;;2.78;;
12286;SDS011;6206;53.100;11.098;2022-07-01T13:21:35;3.20;;;2.90;;
12286;SDS011;6206;53.100;11.098;2022-07-01T13:24:02;4.95;;;3.28;;
12286;SDS011;6206;53.100;11.098;2022-07-01T13:26:29;4.13;;;3.35;;
12286;SDS011;6206;53.100;11.098;2022-07-01T13:28:55;4.28;;;3.47;;
12286;SDS011;6206;53.100;11.098;2022-07-01T13:31:22;4.80;;;3.83;;
12286;SDS011;6206;53.100;11.098;2022-07-01T13:33:50;4.70;;;4.03;;
12286;SDS011;6206;53.100;11.098;2022-07-01T13:36:17;7.63;;;4.20;;
12286;SDS011;6206;53.100;11.098;2022-07-01T13:38:43;5.22;;;4.30;;
12286;SDS011;6206;53.100;11.098;2022-07-01T13:41:10;4.68;;;4.07;;
12286;SDS011;6206;53.100;11.098;2022-07-01T13:43:37;4.85;;;4.07;;
12286;SDS011;6206;53.100;11.098;2022-07-01T13:46:03;5.47;;;4.10;;
12286;SDS011;6206;53.100;11.098;2022-07-01T13:48:30;4.60;;;3.97;;
12286;SDS011;6206;53.100;11.098;2022-07-01T13:50:58;4.13;;;3.60;;
12286;SDS011;6206;53.100;11.098;2022-07-01T13:53:25;3.65;;;3.35;;
12286;SDS011;6206;53.100;11.098;2022-07-01T13:55:52;4.07;;;3.13;;
12286;SDS011;6206;53.100;11.098;2022-07-01T13:58:19;5.35;;;3.40;;
12286;SDS011;6206;53.100;11.098;2022-07-01T14:00:45;3.55;;;3.03;;
12286;SDS011;6206;53.100;11.098;2022-07-01T14:03:12;3.22;;;2.92;;
12286;SDS011;6206;53.100;11.098;2022-07-01T14:05:39;4.80;;;3.10;;
12286;SDS011;6206;53.100;11.098;2022-07-01T14:08:07;3.60;;;2.53;;
12286;SDS011;6206;53.100;11.098;2022-07-01T14:10:33;5.78;;;3.03;;
12286;SDS011;6206;53.100;11.098;2022-07-01T14:13:02;3.17;;;2.88;;
12286;SDS011;6206;53.100;11.098;2022-07-01T14:15:29;4.15;;;3.20;;
12286;SDS011;6206;53.100;11.098;2022-07-01T14:17:56;4.07;;;3.17;;
12286;SDS011;6206;53.100;11.098;2022-07-01T14:20:22;4.22;;;3.50;;
12286;SDS011;6206;53.100;11.098;2022-07-01T14:22:49;4.47;;;3.60;;
12286;SDS011;6206;53.100;11.098;2022-07-01T14:25:19;4.78;;;4.13;;
12286;SDS011;6206;53.100;11.098;2022-07-01T14:27:47;5.47;;;4.30;;
12286;SDS011;6206;53.100;11.098;2022-07-01T14:30:14;6.28;;;4.60;;
12286;SDS011;6206;53.100;11.098;2022-07-01T14:32:41;4.88;;;4.30;;
12286;SDS011;6206;53.100;11.098;2022-07-01T14:35:09;6.50;;;4.63;;
12286;SDS011;6206;53.100;11.098;2022-07-01T14:37:36;4.68;;;4.22;;
12286;SDS011;6206;53.100;11.098;2022-07-01T14:40:05;6.78;;;4.57;;
12286;SDS011;6206;53.100;11.098;2022-07-01T14:42:35;5.00;;;4.45;;
12286;SDS011;6206;53.100;11.098;2022-07-01T14:45:02;5.43;;;3.83;;
12286;SDS011;6206;53.100;11.098;2022-07-01T14:47:30;5.28;;;3.90;;
12286;SDS011;6206;53.100;11.098;2022-07-01T14:49:57;5.25;;;4.30;;
12286;SDS011;6206;53.100;11.098;2022-07-01T14:52:24;4.38;;;3.97;;
12286;SDS011;6206;53.100;11.098;2022-07-01T14:54:51;3.83;;;3.53;;
12286;SDS011;6206;53.100;11.098;2022-07-01T14:57:18;5.55;;;3.40;;
12286;SDS011;6206;53.100;11.098;2022-07-01T14:59:46;3.90;;;3.47;;